createdAt,value
2023-03-15T00:04:01.760Z,2.40
2023-03-15T00:09:05.330Z,2.63
2023-03-15T00:14:09.913Z,1.97
2023-03-15T00:19:13.188Z,2.90
2023-03-15T00:24:16.132Z,2.17
2023-03-15T00:29:21.634Z,2.17
2023-03-15T00:34:26.617Z,2.10
2023-03-15T00:39:29.993Z,2.40
2023-03-15T00:44:34.223Z,2.07
2023-03-15T00:49:37.373Z,2.40
2023-03-15T00:54:41.812Z,3.13
2023-03-15T00:59:46.134Z,2.37
2023-03-15T01:04:49.275Z,3.13
2023-03-15T01:09:52.342Z,3.43
2023-03-15T01:14:56.681Z,5.60
2023-03-15T01:20:00.355Z,3.40
2023-03-15T01:25:03.296Z,2.90
2023-03-15T01:30:08.866Z,3.70
2023-03-15T01:35:11.975Z,2.20
2023-03-15T01:40:15.589Z,2.40
2023-03-15T01:46:24.549Z,2.87
2023-03-15T01:51:36.444Z,2.43
2023-03-15T01:56:42.937Z,2.57
2023-03-15T02:01:47.027Z,3.50
2023-03-15T02:06:51.986Z,4.30
2023-03-15T02:11:57.740Z,3.10
2023-03-15T02:17:00.651Z,3.43
2023-03-15T02:22:18.051Z,2.83
2023-03-15T02:27:28.800Z,2.63
2023-03-15T02:32:32.147Z,2.53
2023-03-15T02:37:35.108Z,2.50
2023-03-15T02:42:39.629Z,2.37
2023-03-15T02:47:42.658Z,2.13
2023-03-15T02:52:45.899Z,2.30
2023-03-15T02:57:50.653Z,2.73
2023-03-15T03:02:53.845Z,2.70
2023-03-15T03:07:56.794Z,2.20
2023-03-15T03:13:01.293Z,2.90
2023-03-15T03:18:13.279Z,2.30
2023-03-15T03:23:16.207Z,1.87
2023-03-15T03:28:21.021Z,1.97
2023-03-15T03:33:24.440Z,1.67
2023-03-15T03:38:27.684Z,2.10
2023-03-15T03:43:35.201Z,2.20
2023-03-15T03:48:38.321Z,2.07
2023-03-15T03:53:42.876Z,1.53
2023-03-15T03:58:48.097Z,1.80
2023-03-15T04:03:59.566Z,1.90
2023-03-15T04:09:04.216Z,1.97
2023-03-15T04:14:16.455Z,2.00
2023-03-15T04:19:21.814Z,2.10
2023-03-15T04:24:24.849Z,1.60
2023-03-15T04:29:49.458Z,1.90
2023-03-15T04:35:07.146Z,1.73
2023-03-15T04:40:35.155Z,2.30
2023-03-15T04:46:01.897Z,1.87
2023-03-15T04:51:18.710Z,2.30
2023-03-15T04:56:29.419Z,2.20
2023-03-15T05:01:54.011Z,1.80
2023-03-15T05:06:56.917Z,2.10
2023-03-15T05:12:26.206Z,1.60
2023-03-15T05:17:59.833Z,2.07
2023-03-15T05:23:14.747Z,2.70
2023-03-15T05:28:25.251Z,3.33
2023-03-15T05:33:47.966Z,2.87
2023-03-15T05:39:09.980Z,2.50
2023-03-15T05:44:34.037Z,2.20
2023-03-15T05:49:41.280Z,2.83
2023-03-15T05:55:02.878Z,3.50
2023-03-15T06:00:22.266Z,3.53
2023-03-15T06:05:32.945Z,2.53
2023-03-15T06:10:39.350Z,2.87
2023-03-15T06:15:44.783Z,2.13
2023-03-15T06:20:49.321Z,1.97
2023-03-15T06:25:54.117Z,1.97
2023-03-15T06:30:59.269Z,2.27
2023-03-15T06:36:14.269Z,2.60
2023-03-15T06:41:17.563Z,1.67
2023-03-15T06:46:20.658Z,1.90
2023-03-15T06:51:25.029Z,1.93
2023-03-15T06:56:28.491Z,2.57
2023-03-15T07:01:31.473Z,2.10
2023-03-15T07:06:36.862Z,2.30
2023-03-15T07:11:39.746Z,2.00
2023-03-15T07:16:42.664Z,2.47
2023-03-15T07:21:47.073Z,2.40
2023-03-15T07:26:54.721Z,1.80
2023-03-15T07:31:57.661Z,2.33
2023-03-15T07:37:01.948Z,1.90
2023-03-15T07:42:07.266Z,2.40
2023-03-15T07:47:16.513Z,2.50
2023-03-15T07:52:21.412Z,2.10
2023-03-15T07:57:24.588Z,2.10
2023-03-15T08:02:30.205Z,2.10
2023-03-15T08:07:35.557Z,2.70
2023-03-15T08:12:40.320Z,2.43
2023-03-15T08:17:43.595Z,2.60
2023-03-15T08:22:48.972Z,2.63
2023-03-15T08:27:52.674Z,2.10
2023-03-15T08:32:55.701Z,1.83
2023-03-15T08:37:59.975Z,2.50
2023-03-15T08:43:02.915Z,2.00
2023-03-15T08:48:06.043Z,1.80
2023-03-15T08:53:10.998Z,1.83
2023-03-15T08:58:14.375Z,2.27
2023-03-15T09:03:17.320Z,2.30
2023-03-15T09:08:21.580Z,2.57
2023-03-15T09:13:25.187Z,1.87
2023-03-15T09:18:28.482Z,2.60
2023-03-15T09:23:32.827Z,2.57
2023-03-15T09:28:35.774Z,2.53
2023-03-15T09:33:38.734Z,3.60
2023-03-15T09:38:43.859Z,2.73
2023-03-15T09:44:02.223Z,2.70
2023-03-15T09:49:14.297Z,2.60
2023-03-15T09:54:24.217Z,2.37
2023-03-15T09:59:33.672Z,2.70
2023-03-15T10:04:40.624Z,2.97
2023-03-15T10:09:45.015Z,2.77
2023-03-15T10:15:17.569Z,2.60
2023-03-15T10:20:24.291Z,2.80
2023-03-15T10:25:30.753Z,2.90
2023-03-15T10:30:35.823Z,4.33
2023-03-15T10:35:39.378Z,3.47
2023-03-15T10:40:47.231Z,3.00
2023-03-15T10:46:01.018Z,3.50
2023-03-15T10:51:07.410Z,3.00
2023-03-15T10:56:22.279Z,3.13
2023-03-15T11:01:29.002Z,2.30
2023-03-15T11:06:42.155Z,2.83
2023-03-15T11:12:01.996Z,2.80
2023-03-15T11:17:07.206Z,3.40
2023-03-15T11:22:15.019Z,2.60
2023-03-15T11:27:22.750Z,2.67
2023-03-15T11:32:28.512Z,2.40
2023-03-15T11:37:39.306Z,2.40
2023-03-15T11:42:50.532Z,2.33
2023-03-15T11:47:57.235Z,2.10
2023-03-15T11:53:03.902Z,2.27
2023-03-15T11:58:30.061Z,2.50
2023-03-15T12:03:40.086Z,2.33
2023-03-15T12:08:46.833Z,2.63
2023-03-15T12:14:06.686Z,3.00
2023-03-15T12:19:15.287Z,4.90
2023-03-15T12:24:23.658Z,2.80
2023-03-15T12:29:30.211Z,2.97
2023-03-15T12:34:54.951Z,3.27
2023-03-15T12:40:02.660Z,2.60
2023-03-15T12:45:39.033Z,3.10
2023-03-15T12:50:52.825Z,2.70
2023-03-15T12:56:02.869Z,2.07
2023-03-15T13:01:16.329Z,1.80
2023-03-15T13:06:31.301Z,2.20
2023-03-15T13:11:41.260Z,2.80
2023-03-15T13:16:51.119Z,2.67
2023-03-15T13:22:04.872Z,3.13
2023-03-15T13:27:13.193Z,2.83
2023-03-15T13:32:20.268Z,2.73
2023-03-15T13:37:26.708Z,3.70
2023-03-15T13:42:29.720Z,2.90
2023-03-15T13:47:35.855Z,2.67
2023-03-15T13:52:38.977Z,1.97
2023-03-15T13:57:42.342Z,1.90
2023-03-15T14:02:49.616Z,2.40
2023-03-15T14:07:59.262Z,2.47
2023-03-15T14:13:22.385Z,2.70
2023-03-15T14:18:31.878Z,2.50
2023-03-15T14:23:39.837Z,2.53
2023-03-15T14:28:43.753Z,3.20
2023-03-15T14:33:54.359Z,2.80
2023-03-15T14:39:00.170Z,2.73
2023-03-15T14:44:04.119Z,3.20
2023-03-15T14:49:11.177Z,5.17
2023-03-15T14:54:14.319Z,4.60
2023-03-15T14:59:18.085Z,3.00
2023-03-15T15:04:23.062Z,3.00
2023-03-15T15:09:28.205Z,4.07
2023-03-15T15:14:31.740Z,3.00
2023-03-15T15:19:36.056Z,4.67
2023-03-15T15:24:39.033Z,2.70
2023-03-15T15:29:41.986Z,2.13
2023-03-15T15:34:46.348Z,1.90
2023-03-15T15:39:49.311Z,2.80
2023-03-15T15:44:53.111Z,2.10
2023-03-15T15:49:57.429Z,1.87
2023-03-15T15:55:02.249Z,1.80
2023-03-15T16:00:06.602Z,1.93
2023-03-15T16:05:32.990Z,1.80
2023-03-15T16:10:36.193Z,1.73
2023-03-15T16:15:39.256Z,1.93
2023-03-15T16:20:44.068Z,2.13
2023-03-15T16:25:49.144Z,2.83
2023-03-15T16:30:52.231Z,2.83
2023-03-15T16:35:56.593Z,2.23
2023-03-15T16:41:01.365Z,3.20
2023-03-15T16:46:13.432Z,2.90
2023-03-15T16:51:18.138Z,4.07
2023-03-15T16:56:21.071Z,15.87
2023-03-15T17:01:25.844Z,6.10
2023-03-15T17:06:31.427Z,6.47
2023-03-15T17:11:34.385Z,5.50
2023-03-15T17:16:37.354Z,6.03
2023-03-15T17:21:43.460Z,6.80
2023-03-15T17:26:46.968Z,3.73
2023-03-15T17:31:49.923Z,4.10
2023-03-15T17:36:56.018Z,3.60
2023-03-15T17:42:00.198Z,4.50
2023-03-15T17:47:05.947Z,3.43
2023-03-15T17:52:15.222Z,3.47
2023-03-15T17:57:18.163Z,4.40
2023-03-15T18:02:21.787Z,11.20
2023-03-15T18:07:28.799Z,5.73
2023-03-15T18:12:31.762Z,9.07
2023-03-15T18:17:34.858Z,8.83
2023-03-15T18:22:40.874Z,6.90
2023-03-15T18:27:43.819Z,8.23
2023-03-15T18:32:47.118Z,5.10
2023-03-15T18:37:51.617Z,3.43
2023-03-15T18:42:55.068Z,4.30
2023-03-15T18:47:59.846Z,3.70
2023-03-15T18:53:06.150Z,5.77
2023-03-15T18:58:12.934Z,3.80
2023-03-15T19:03:15.917Z,5.03
2023-03-15T19:08:20.317Z,8.00
2023-03-15T19:13:23.418Z,6.80
2023-03-15T19:18:26.686Z,7.47
2023-03-15T19:23:32.157Z,6.50
2023-03-15T19:28:35.252Z,4.43
2023-03-15T19:33:38.547Z,3.70
2023-03-15T19:38:42.806Z,4.67
2023-03-15T19:43:46.195Z,4.73
2023-03-15T19:48:49.355Z,5.90
2023-03-15T19:53:53.769Z,4.77
2023-03-15T19:58:57.228Z,4.60
2023-03-15T20:04:00.777Z,4.90
2023-03-15T20:09:06.024Z,5.90
2023-03-15T20:14:09.237Z,5.30
2023-03-15T20:19:12.144Z,4.00
2023-03-15T20:24:16.452Z,3.93
2023-03-15T20:29:19.514Z,3.70
2023-03-15T20:34:23.036Z,4.60
2023-03-15T20:39:27.335Z,3.90
2023-03-15T20:44:30.412Z,5.03
2023-03-15T20:49:33.313Z,5.33
2023-03-15T20:54:38.039Z,6.90
2023-03-15T20:59:40.892Z,7.40
2023-03-15T21:04:44.542Z,7.03
2023-03-15T21:09:48.853Z,7.37
2023-03-15T21:14:51.911Z,8.53
2023-03-15T21:19:54.851Z,6.07
2023-03-15T21:24:59.110Z,5.70
2023-03-15T21:30:02.460Z,4.90
2023-03-15T21:35:05.971Z,4.40
2023-03-15T21:40:11.790Z,4.00
2023-03-15T21:45:14.870Z,4.30
2023-03-15T21:50:17.880Z,3.67
2023-03-15T21:55:22.724Z,3.60
2023-03-15T22:00:26.474Z,4.07
2023-03-15T22:05:29.584Z,4.53
2023-03-15T22:10:33.876Z,3.93
2023-03-15T22:15:36.813Z,4.90
2023-03-15T22:20:39.838Z,4.57
2023-03-15T22:25:44.100Z,5.33
2023-03-15T22:30:48.984Z,5.40
2023-03-15T22:35:56.729Z,5.60
2023-03-15T22:41:06.631Z,6.47
2023-03-15T22:46:10.052Z,6.73
2023-03-15T22:51:16.066Z,7.63
2023-03-15T22:56:20.501Z,5.30
2023-03-15T23:01:23.483Z,4.83
2023-03-15T23:06:26.511Z,3.60
2023-03-15T23:11:30.767Z,3.73
2023-03-15T23:16:34.032Z,4.00
2023-03-15T23:21:37.186Z,3.70
2023-03-15T23:26:41.872Z,3.70
2023-03-15T23:31:44.798Z,3.93
2023-03-15T23:36:47.702Z,3.80
2023-03-15T23:41:51.969Z,4.53
2023-03-15T23:46:55.019Z,3.30
2023-03-15T23:51:57.927Z,3.53
2023-03-15T23:57:02.206Z,5.03
